Current Weather

Ahwaz

Ahwaz, Iran (OIAW)

Report from: Tuesday, August 16, 2022 11:23 AM +0430
Current time: Tuesday, August 16, 2022 12:03 PM +0430

Nearby weather
Weather history
Weather forecast

Temperature45.0°C (113.0°F)
Heat index45.4°C (113.6°F)
Dew point14.0°C (57.2°F)
Winds 2 kts (1 m/s, 2.3 mph) East-Southeast (120°)
Clouds Sky clear
Altimeter29.44 in.Hg (997 mB)
Relative humidity17 %
Density altitude4,102 ft. (1,250 m)
Remarks Ceiling and visibility OK
Flight conditions Visual Meteorological Conditions
Raw dataOIAW 160653Z 12002KT CAVOK 45/14 Q0997
An error has occurred. This application may no longer respond until reloaded. Reload 🗙